Time;durP1;ratioP1;P1;durP2;ratioP2;P2;SDS_P1;SDS_P2;PMS_P1;PMS_P2;Temp;Humidity;BMP_temperature;BMP_pressure;BME280_temperature;BME280_humidity;BME280_pressure;Samples;Min_cycle;Max_cycle;Signal;HPM_P1;HPM_P2
2020/12/01 00:01:49;;;;;;;81.95;54.25;;;;;;;0.11;77.25;100820.47;126685;1098;25168;-77
2020/12/01 00:04:19;;;;;;;79.58;55.35;;;;;;;0.10;77.49;100829.47;126753;1098;23382;-76
2020/12/01 00:06:47;;;;;;;91.10;60.70;;;;;;;0.08;77.12;100816.16;126847;1098;23348;-75
2020/12/01 00:09:16;;;;;;;89.03;58.42;;;;;;;0.05;77.21;100816.40;126762;1098;23593;-76
2020/12/01 00:11:45;;;;;;;71.47;46.90;;;;;;;0.04;77.53;100816.50;126687;1098;23325;-76
2020/12/01 00:14:13;;;;;;;90.03;56.00;;;;;;;0.02;77.46;100811.24;126688;1098;28018;-77
2020/12/01 00:16:45;;;;;;;84.97;49.73;;;;;;;-0.02;77.16;100810.63;126731;1098;23392;-76
2020/12/01 00:19:14;;;;;;;77.15;46.85;;;;;;;-0.05;77.27;100805.47;126706;1099;23329;-75
2020/12/01 00:21:46;;;;;;;78.12;44.80;;;;;;;-0.05;77.25;100804.62;126673;1098;23383;-76
2020/12/01 00:24:14;;;;;;;80.47;47.88;;;;;;;-0.08;77.52;100800.34;126811;1099;23447;-76
2020/12/01 00:26:43;;;;;;;71.42;46.60;;;;;;;-0.08;77.56;100807.55;126803;1098;23325;-77
2020/12/01 00:29:12;;;;;;;74.40;45.00;;;;;;;-0.11;77.57;100799.70;126726;1098;23434;-72
2020/12/01 00:31:42;;;;;;;83.70;52.55;;;;;;;-0.06;77.67;100808.30;126716;1099;23395;-77
2020/12/01 00:34:13;;;;;;;88.72;55.12;;;;;;;-0.05;77.92;100812.67;126784;1098;23395;-77
2020/12/01 00:36:43;;;;;;;85.17;51.02;;;;;;;-0.07;77.44;100798.52;126811;1098;23393;-77
2020/12/01 00:39:12;;;;;;;85.10;52.58;;;;;;;-0.10;77.62;100804.12;126777;1098;23331;-76
2020/12/01 00:41:40;;;;;;;97.08;58.95;;;;;;;-0.13;77.56;100798.96;126676;1098;25480;-76
2020/12/01 00:44:08;;;;;;;90.83;55.23;;;;;;;-0.12;77.56;100798.86;126791;1098;23473;-77
2020/12/01 00:46:37;;;;;;;80.42;50.03;;;;;;;-0.14;77.62;100800.79;126802;1099;23442;-76
2020/12/01 00:49:05;;;;;;;83.82;48.25;;;;;;;-0.16;77.79;100801.88;126695;1098;23332;-77
2020/12/01 00:51:34;;;;;;;77.08;50.00;;;;;;;-0.18;77.78;100804.66;126740;1098;23434;-76
2020/12/01 00:54:03;;;;;;;80.60;49.10;;;;;;;-0.17;77.84;100816.23;126714;1098;23345;-77
2020/12/01 00:56:31;;;;;;;75.00;43.77;;;;;;;-0.17;77.93;100809.08;126734;1098;23392;-77
2020/12/01 00:59:00;;;;;;;77.87;46.18;;;;;;;-0.18;78.04;100801.98;126724;1098;24988;-76
2020/12/01 01:01:34;;;;;;;82.33;47.43;;;;;;;-0.20;77.95;100798.55;126727;1099;23397;-76
2020/12/01 01:04:03;;;;;;;72.87;44.25;;;;;;;-0.18;78.08;100810.03;126655;1098;24911;-77
2020/12/01 01:06:32;;;;;;;71.17;44.80;;;;;;;-0.16;78.02;100796.52;126686;1098;23445;-76
2020/12/01 01:09:00;;;;;;;72.33;44.07;;;;;;;-0.16;77.97;100801.88;126752;1098;23328;-76
2020/12/01 01:11:31;;;;;;;72.80;45.60;;;;;;;-0.14;77.96;100789.22;126695;1099;23329;-75
2020/12/01 01:14:00;;;;;;;71.40;47.45;;;;;;;-0.11;77.90;100791.66;126744;1098;23359;-76
2020/12/01 01:16:28;;;;;;;71.30;42.38;;;;;;;-0.10;78.52;100786.19;126692;1098;23530;-78
2020/12/01 01:18:56;;;;;;;71.55;40.73;;;;;;;-0.08;78.37;100788.77;126789;1098;23492;-75
2020/12/01 01:21:24;;;;;;;78.45;44.03;;;;;;;-0.08;78.41;100775.36;126705;1098;23333;-76
2020/12/01 01:23:53;;;;;;;72.85;42.73;;;;;;;-0.06;78.12;100778.79;126668;1098;23476;-77
2020/12/01 01:26:22;;;;;;;78.52;43.52;;;;;;;-0.02;78.57;100772.23;126800;1098;26500;-76
2020/12/01 01:28:50;;;;;;;73.87;41.65;;;;;;;0.01;78.36;100774.67;126722;1098;25255;-76
2020/12/01 01:31:19;;;;;;;73.92;42.48;;;;;;;0.02;78.48;100762.11;126718;1098;23322;-75
2020/12/01 01:33:47;;;;;;;75.92;44.27;;;;;;;0.02;78.36;100762.96;126757;1099;25365;-75
2020/12/01 01:36:16;;;;;;;70.30;43.20;;;;;;;0.04;78.46;100760.17;126692;1098;23339;-77
2020/12/01 01:38:44;;;;;;;76.05;43.48;;;;;;;0.05;78.34;100756.53;126735;1099;27849;-77
2020/12/01 01:41:13;;;;;;;80.95;48.42;;;;;;;0.09;78.42;100755.34;126805;1099;24610;-77
2020/12/01 01:43:42;;;;;;;78.83;50.40;;;;;;;0.13;78.62;100748.78;126715;1099;26982;-78
2020/12/01 01:46:36;;;;;;;70.67;46.03;;;;;;;0.15;78.48;100741.44;126695;1099;23332;-76
2020/12/01 01:49:12;;;;;;;76.90;51.02;;;;;;;0.14;78.50;100735.23;126739;1098;23321;-77
2020/12/01 01:51:49;;;;;;;79.12;54.35;;;;;;;0.16;78.68;100727.07;126749;1099;23325;-76
2020/12/01 01:54:20;;;;;;;76.62;48.38;;;;;;;0.21;78.45;100730.25;126862;1098;23369;-77
2020/12/01 01:56:55;;;;;;;76.70;50.20;;;;;;;0.23;78.46;100724.78;126808;1098;23549;-77
2020/12/01 01:59:28;;;;;;;80.03;51.08;;;;;;;0.27;78.59;100723.58;126768;1098;24843;-76
2020/12/01 02:01:59;;;;;;;76.92;50.38;;;;;;;0.32;78.46;100726.76;126742;1098;23339;-77
2020/12/01 02:04:30;;;;;;;77.60;46.92;;;;;;;0.32;78.12;100713.34;126743;1098;23362;-78
2020/12/01 02:07:05;;;;;;;73.62;47.45;;;;;;;0.32;78.02;100716.02;126798;1098;23382;-76
2020/12/01 02:09:47;;;;;;;65.78;45.52;;;;;;;0.33;78.13;100717.75;126755;1098;26574;-77
2020/12/01 02:12:19;;;;;;;73.10;46.73;;;;;;;0.32;78.25;100706.17;126718;1098;24972;-76
2020/12/01 02:15:06;;;;;;;75.30;44.98;;;;;;;0.33;78.09;100704.33;126651;1099;26843;-77
2020/12/01 02:17:37;;;;;;;82.95;47.20;;;;;;;0.32;78.24;100698.11;126691;1099;23382;-78
2020/12/01 02:20:12;;;;;;;84.62;50.58;;;;;;;0.33;78.43;100696.28;126799;1099;23364;-77
2020/12/01 02:22:54;;;;;;;68.65;46.23;;;;;;;0.32;78.25;100692.75;126814;1099;23422;-76
2020/12/01 02:25:24;;;;;;;68.63;40.80;;;;;;;0.32;78.11;100684.70;126717;1098;23767;-77
2020/12/01 02:27:56;;;;;;;66.15;44.53;;;;;;;0.33;78.18;100691.77;126684;1098;23425;-75
2020/12/01 02:30:24;;;;;;;77.92;48.05;;;;;;;0.35;78.22;100686.28;126799;1099;23363;-76
2020/12/01 02:32:52;;;;;;;72.78;46.37;;;;;;;0.35;78.07;100680.91;126717;1098;25044;-76
2020/12/01 02:35:21;;;;;;;73.60;42.85;;;;;;;0.36;78.37;100680.81;126730;1098;23382;-76
2020/12/01 02:37:49;;;;;;;76.45;49.45;;;;;;;0.36;78.28;100679.93;126510;1098;24904;-77
2020/12/01 02:40:18;;;;;;;64.25;42.00;;;;;;;0.36;78.24;100669.19;126685;1098;23460;-77
2020/12/01 02:42:51;;;;;;;75.10;45.73;;;;;;;0.38;78.22;100677.98;126728;1098;23366;-77
2020/12/01 02:45:20;;;;;;;65.78;42.95;;;;;;;0.39;78.13;100674.34;126714;1098;23488;-77
2020/12/01 02:47:49;;;;;;;72.32;44.00;;;;;;;0.40;78.11;100660.78;126783;1098;23328;-77
2020/12/01 02:50:17;;;;;;;59.37;39.23;;;;;;;0.42;77.96;100662.51;126725;1098;23382;-77
2020/12/01 02:52:45;;;;;;;68.95;39.83;;;;;;;0.44;78.31;100665.93;126689;1099;23395;-77
2020/12/01 02:55:13;;;;;;;62.73;37.67;;;;;;;0.45;78.21;100656.89;126688;1098;24860;-77
2020/12/01 02:57:41;;;;;;;67.90;38.90;;;;;;;0.47;77.97;100663.00;126634;1098;23318;-77
2020/12/01 03:00:10;;;;;;;64.60;39.33;;;;;;;0.47;77.95;100653.14;126774;1098;26786;-76
2020/12/01 03:02:38;;;;;;;62.53;36.83;;;;;;;0.47;78.11;100658.50;126790;1098;23396;-76
2020/12/01 03:05:07;;;;;;;56.95;34.43;;;;;;;0.47;77.98;100654.94;126763;1099;23312;-77
2020/12/01 03:07:35;;;;;;;62.63;38.27;;;;;;;0.47;78.05;100655.82;126604;1098;23398;-77
2020/12/01 03:10:06;;;;;;;65.95;42.60;;;;;;;0.50;78.26;100652.89;126686;1098;24862;-76
2020/12/01 03:12:34;;;;;;;60.30;37.85;;;;;;;0.51;77.86;100661.78;126783;1098;23336;-77
2020/12/01 03:15:10;;;;;;;57.83;38.35;;;;;;;0.50;78.04;100658.25;126723;1098;23432;-77
2020/12/01 03:17:39;;;;;;;56.08;35.68;;;;;;;0.50;78.10;100671.67;126809;1098;23431;-77
2020/12/01 03:20:08;;;;;;;52.17;32.85;;;;;;;0.50;78.14;100660.09;126747;1098;27245;-75
2020/12/01 03:22:36;;;;;;;64.22;38.40;;;;;;;0.51;78.01;100657.30;126680;1098;23786;-76
2020/12/01 03:25:04;;;;;;;60.70;38.60;;;;;;;0.51;77.74;100657.30;126657;1099;23336;-75
2020/12/01 03:27:32;;;;;;;62.93;40.00;;;;;;;0.52;77.71;100658.14;126701;1098;23324;-76
2020/12/01 03:30:03;;;;;;;62.45;39.35;;;;;;;0.56;77.81;100659.62;126833;1098;26816;-76
2020/12/01 03:32:31;;;;;;;59.95;36.63;;;;;;;0.57;77.95;100656.80;126796;1098;26443;-76
2020/12/01 03:35:00;;;;;;;47.33;28.45;;;;;;;0.56;77.94;100655.09;126753;1098;23325;-75
2020/12/01 03:37:28;;;;;;;64.25;39.70;;;;;;;0.57;77.82;100645.20;126800;1098;23366;-77
2020/12/01 03:39:56;;;;;;;65.83;39.13;;;;;;;0.56;77.70;100649.72;126711;1098;25204;-76
2020/12/01 03:42:25;;;;;;;57.20;38.28;;;;;;;0.54;77.57;100646.30;126788;1098;26970;-77
2020/12/01 03:44:53;;;;;;;61.53;40.60;;;;;;;0.55;77.80;100649.84;126753;1098;27391;-77
2020/12/01 03:47:21;;;;;;;64.80;39.58;;;;;;;0.58;77.54;100658.52;126669;1099;26849;-77
2020/12/01 03:49:50;;;;;;;71.35;42.98;;;;;;;0.57;77.58;100648.73;126706;1099;26405;-77
2020/12/01 03:52:18;;;;;;;63.28;44.63;;;;;;;0.57;77.53;100651.42;126804;1099;23495;-75
2020/12/01 03:54:46;;;;;;;61.45;42.75;;;;;;;0.59;77.97;100652.16;126348;1099;23392;-76
2020/12/01 03:57:14;;;;;;;62.83;43.73;;;;;;;0.59;77.98;100656.68;126778;1098;23520;-76
2020/12/01 03:59:42;;;;;;;69.07;48.33;;;;;;;0.59;77.61;100657.52;126716;1098;23391;-77
2020/12/01 04:02:11;;;;;;;70.97;44.13;;;;;;;0.60;77.58;100651.20;126780;1098;23327;-77
2020/12/01 04:04:39;;;;;;;76.30;44.70;;;;;;;0.59;77.48;100653.99;126729;1099;23491;-77
2020/12/01 04:07:07;;;;;;;68.15;44.65;;;;;;;0.59;77.65;100648.62;126663;1098;23329;-77
2020/12/01 04:09:35;;;;;;;57.70;40.23;;;;;;;0.60;77.62;100656.57;126811;1098;24038;-77
2020/12/01 04:12:04;;;;;;;63.13;39.60;;;;;;;0.60;77.47;100656.57;126808;1098;23893;-77
2020/12/01 04:14:32;;;;;;;62.20;41.08;;;;;;;0.59;77.53;100643.25;126731;1098;23325;-75
2020/12/01 04:17:00;;;;;;;59.48;38.55;;;;;;;0.60;77.73;100650.35;126685;1098;23395;-77
2020/12/01 04:19:32;;;;;;;62.83;42.67;;;;;;;0.63;77.51;100651.94;126770;1098;23336;-77
2020/12/01 04:22:01;;;;;;;62.20;45.83;;;;;;;0.63;77.54;100650.09;126751;1098;23466;-76
2020/12/01 04:24:29;;;;;;;70.83;44.13;;;;;;;0.65;77.53;100648.15;126747;1098;23328;-77
2020/12/01 04:26:57;;;;;;;69.40;46.15;;;;;;;0.65;77.53;100641.93;126792;1098;23571;-78
2020/12/01 04:29:25;;;;;;;59.45;40.00;;;;;;;0.65;77.36;100641.93;126679;1098;23325;-77
2020/12/01 04:31:54;;;;;;;61.08;41.80;;;;;;;0.64;77.45;100640.20;126657;1098;23346;-77
2020/12/01 04:34:22;;;;;;;59.88;38.40;;;;;;;0.66;77.71;100651.68;126704;1099;26660;-76
2020/12/01 04:36:50;;;;;;;48.65;34.67;;;;;;;0.69;77.67;100643.41;126755;1098;24905;-77
2020/12/01 04:39:19;;;;;;;51.83;36.17;;;;;;;0.70;77.24;100643.26;126746;1098;26908;-77
2020/12/01 04:41:47;;;;;;;55.20;37.73;;;;;;;0.72;77.37;100643.14;126753;1099;23382;-76
2020/12/01 04:44:38;;;;;;;62.15;39.40;;;;;;;0.74;77.34;100651.94;126651;1098;23392;-79
2020/12/01 04:47:20;;;;;;;66.30;46.20;;;;;;;0.76;77.55;100649.98;126784;1098;23328;-78
2020/12/01 04:49:59;;;;;;;59.83;42.75;;;;;;;0.76;77.65;100655.36;126774;1098;25060;-76
2020/12/01 04:52:52;;;;;;;66.75;41.58;;;;;;;0.77;77.50;100649.88;126638;1098;26526;-76
2020/12/01 04:55:35;;;;;;;;;;;;;;;0.77;77.07;100652.56;126806;1098;28028;-76
2020/12/01 04:59:00;;;;;;;55.10;36.42;;;;;;;0.74;77.20;100654.63;126769;1098;21492;-77
2020/12/01 05:02:08;;;;;;;64.17;41.65;;;;;;;0.72;77.26;100656.58;126716;1098;23459;-77
2020/12/01 05:08:58;;;;;;;60.63;38.95;;;;;;;0.76;77.24;100655.36;125859;1104;23738;-75
2020/12/01 05:11:47;;;;;;;53.85;39.20;;;;;;;0.80;77.48;100662.20;125921;1105;23423;-76
2020/12/01 05:14:36;;;;;;;57.80;39.20;;;;;;;0.80;77.12;100664.89;125891;1104;26833;-75
2020/12/01 05:17:26;;;;;;;53.65;39.27;;;;;;;0.80;77.13;100667.57;125875;1105;24711;-76
2020/12/01 05:19:54;;;;;;;47.93;34.03;;;;;;;0.79;77.10;100661.36;125887;1105;23480;-76
2020/12/01 05:22:23;;;;;;;58.42;37.28;;;;;;;0.80;76.94;100662.20;125880;1104;23397;-77
2020/12/01 05:24:53;;;;;;;49.90;34.67;;;;;;;0.80;77.01;100656.83;125906;1104;23351;-76
2020/12/01 05:27:36;;;;;;;49.47;33.10;;;;;;;0.81;76.86;100653.16;125908;1104;23382;-76
2020/12/01 05:30:23;;;;;;;47.95;32.70;;;;;;;0.81;77.05;100655.84;125916;1104;23401;-77
2020/12/01 05:33:19;;;;;;;44.90;29.12;;;;;;;0.79;76.84;100655.98;125912;1104;23385;-77
2020/12/01 05:36:21;;;;;;;44.77;30.40;;;;;;;0.80;76.96;100662.20;125637;1104;25125;-76
2020/12/01 05:39:00;;;;;;;41.60;26.52;;;;;;;0.78;76.71;100658.78;125880;1105;25350;-76
2020/12/01 05:41:33;;;;;;;43.23;29.33;;;;;;;0.79;76.90;100658.67;125935;1104;28025;-76
2020/12/01 05:44:29;;;;;;;45.40;29.77;;;;;;;0.79;76.66;100655.10;126062;1102;25110;-76
2020/12/01 05:47:05;;;;;;;49.27;30.63;;;;;;;0.80;77.03;100657.67;126245;1101;23396;-75
2020/12/01 05:49:48;;;;;;;50.25;31.45;;;;;;;0.84;76.59;100657.45;126269;1101;23379;-76
2020/12/01 05:52:24;;;;;;;48.52;32.13;;;;;;;0.84;76.64;100669.05;126266;1101;25093;-76
2020/12/01 05:55:26;;;;;;;55.33;34.37;;;;;;;0.82;76.60;100665.62;126193;1101;23401;-76
2020/12/01 05:58:02;;;;;;;48.73;31.10;;;;;;;0.82;76.14;100660.25;125887;1105;27967;-76
2020/12/01 06:00:35;;;;;;;48.63;27.30;;;;;;;0.82;76.84;100662.94;125929;1104;26871;-76
2020/12/01 06:03:47;;;;;;;46.08;28.42;;;;;;;0.80;76.48;100663.05;125923;1104;26408;-78
2020/12/01 06:06:15;;;;;;;39.40;25.77;;;;;;;0.79;76.45;100664.04;125875;1104;23337;-76
2020/12/01 06:08:59;;;;;;;48.20;28.93;;;;;;;0.80;76.57;100667.57;125909;1105;23341;-77
2020/12/01 06:11:47;;;;;;;44.65;30.20;;;;;;;0.82;76.52;100660.25;125899;1105;23452;-76
2020/12/01 06:14:30;;;;;;;45.73;29.87;;;;;;;0.84;76.41;100668.20;125909;1104;23352;-76
2020/12/01 06:17:06;;;;;;;45.40;28.42;;;;;;;0.86;76.27;100671.61;125873;1104;23338;-76
2020/12/01 06:19:46;;;;;;;41.98;26.52;;;;;;;0.85;76.26;100668.05;125914;1105;23343;-76
2020/12/01 06:22:18;;;;;;;40.03;26.33;;;;;;;0.84;76.00;100665.52;125845;1105;23341;-78
2020/12/01 06:25:14;;;;;;;62.48;34.83;;;;;;;0.82;75.86;100671.00;126041;1102;25172;-75
2020/12/01 06:28:18;;;;;;;79.97;46.28;;;;;;;0.80;76.14;100672.94;126269;1102;26415;-78
2020/12/01 06:31:23;;;;;;;64.37;36.20;;;;;;;0.80;75.82;100665.73;125924;1104;26698;-76
2020/12/01 06:34:32;;;;;;;42.35;24.18;;;;;;;0.82;75.80;100668.31;125898;1105;23693;-77
2020/12/01 06:37:10;;;;;;;41.18;21.48;;;;;;;0.81;75.98;100670.15;126236;1102;27886;-77
2020/12/01 06:40:10;;;;;;;63.15;31.40;;;;;;;0.81;75.80;100670.15;126194;1102;23360;-77
2020/12/01 06:42:51;;;;;;;59.40;30.52;;;;;;;0.81;75.74;100671.95;126221;1102;23356;-77
2020/12/01 06:45:55;;;;;;;49.50;27.10;;;;;;;0.84;75.88;100668.20;126205;1102;23414;-77
2020/12/01 06:48:27;;;;;;;50.90;27.07;;;;;;;0.84;75.77;100671.73;126209;1101;23519;-77
2020/12/01 06:51:00;;;;;;;38.83;23.77;;;;;;;0.85;75.84;100670.73;126232;1101;23469;-77
2020/12/01 06:53:33;;;;;;;46.40;27.85;;;;;;;0.88;75.41;100667.83;126270;1102;23475;-76
2020/12/01 06:56:07;;;;;;;51.00;28.30;;;;;;;0.91;75.47;100675.62;126258;1101;23440;-75
2020/12/01 06:58:45;;;;;;;51.28;26.85;;;;;;;0.92;75.47;100673.82;126198;1102;23382;-76
2020/12/01 07:01:27;;;;;;;50.38;29.60;;;;;;;0.93;75.34;100676.36;126223;1101;23360;-74
2020/12/01 07:04:12;;;;;;;59.00;32.20;;;;;;;0.93;75.58;100667.45;126200;1101;26444;-73
2020/12/01 07:07:02;;;;;;;55.10;33.20;;;;;;;0.93;75.02;100672.83;126168;1101;23559;-74
2020/12/01 07:09:45;;;;;;;42.35;23.20;;;;;;;0.92;74.84;100677.36;126629;1098;23340;-74
2020/12/01 07:12:13;;;;;;;58.45;31.15;;;;;;;0.90;75.01;100676.62;126695;1098;23379;-72
2020/12/01 07:14:46;;;;;;;50.17;30.87;;;;;;;0.93;74.74;100683.58;126721;1098;23366;-73
2020/12/01 07:17:20;;;;;;;52.13;28.62;;;;;;;0.95;74.76;100687.00;126748;1098;28031;-74
2020/12/01 07:20:13;;;;;;;61.10;30.92;;;;;;;0.97;74.77;100680.52;126771;1098;26788;-74
2020/12/01 07:22:53;;;;;;;44.85;27.37;;;;;;;0.99;74.67;100683.94;126786;1098;23530;-74
2020/12/01 07:25:21;;;;;;;55.20;30.68;;;;;;;0.99;74.54;100681.25;126611;1098;23376;-75
2020/12/01 07:28:05;;;;;;;47.03;29.50;;;;;;;0.98;74.47;100684.93;126741;1098;26431;-74
2020/12/01 07:31:19;;;;;;;60.60;29.33;;;;;;;1.00;74.46;100687.48;126577;1098;23325;-74
2020/12/01 07:33:59;;;;;;;39.53;25.43;;;;;;;0.99;74.09;100693.84;126168;1101;23486;-75
2020/12/01 07:36:43;;;;;;;49.43;28.60;;;;;;;0.98;74.18;100692.99;126241;1101;23442;-74
2020/12/01 07:39:28;;;;;;;46.35;27.22;;;;;;;1.04;74.22;100685.41;126189;1101;23246;-75
2020/12/01 07:42:04;;;;;;;44.25;24.82;;;;;;;1.09;74.26;100691.27;126273;1101;23387;-73
2020/12/01 07:44:41;;;;;;;61.08;33.40;;;;;;;1.13;74.25;100701.67;126204;1101;26740;-73
2020/12/01 07:47:19;;;;;;;51.63;31.50;;;;;;;1.17;74.19;100695.08;126277;1102;25393;-75
2020/12/01 07:50:02;;;;;;;51.50;31.70;;;;;;;1.24;73.93;100698.13;126220;1101;23381;-75
2020/12/01 07:52:40;;;;;;;57.20;33.60;;;;;;;1.29;74.14;100697.75;126217;1101;23588;-72
2020/12/01 07:55:37;;;;;;;54.50;30.35;;;;;;;1.31;73.72;100696.64;126231;1101;26397;-74
2020/12/01 07:58:13;;;;;;;50.73;29.25;;;;;;;1.33;73.44;100702.75;125862;1105;24716;-74
2020/12/01 08:00:42;;;;;;;45.27;27.10;;;;;;;1.35;73.45;100708.02;125949;1105;23391;-74
2020/12/01 08:03:21;;;;;;;53.65;29.85;;;;;;;1.36;73.29;100707.02;125552;1105;26836;-74
2020/12/01 08:05:52;;;;;;;44.53;28.00;;;;;;;1.39;73.52;100713.02;125826;1105;23363;-75
2020/12/01 08:08:23;;;;;;;48.28;31.55;;;;;;;1.46;73.40;100709.83;125835;1105;23378;-74
2020/12/01 08:10:52;;;;;;;47.88;28.67;;;;;;;1.45;72.68;100710.80;125899;1102;23420;-75
2020/12/01 08:13:21;;;;;;;47.03;27.80;;;;;;;1.46;72.95;100726.81;126147;1101;23347;-76
2020/12/01 08:16:03;;;;;;;45.48;25.82;;;;;;;1.49;72.94;100723.02;126170;1102;23348;-73
2020/12/01 08:18:33;;;;;;;43.23;26.70;;;;;;;1.47;72.66;100736.58;126223;1101;23334;-75
2020/12/01 08:21:03;;;;;;;45.75;28.38;;;;;;;1.43;72.37;100727.07;126177;1101;23405;-74
2020/12/01 08:23:32;;;;;;;53.00;29.37;;;;;;;1.42;72.56;100718.13;126202;1101;23447;-74
2020/12/01 08:26:24;;;;;;;51.83;28.65;;;;;;;1.44;72.56;100715.33;126277;1101;23346;-74
2020/12/01 08:29:30;;;;;;;43.30;28.50;;;;;;;1.46;72.51;100721.44;126242;1101;23336;-75
2020/12/01 08:32:27;;;;;;;52.95;30.12;;;;;;;1.51;72.71;100715.68;126167;1101;23323;-75
2020/12/01 08:35:14;;;;;;;53.40;31.90;;;;;;;1.54;72.31;100718.14;126257;1098;26830;-75
2020/12/01 08:38:02;;;;;;;45.17;28.57;;;;;;;1.57;72.48;100725.94;126666;1098;23390;-74
2020/12/01 08:41:02;;;;;;;54.73;29.98;;;;;;;1.65;72.71;100723.49;126776;1098;26789;-75
2020/12/01 08:43:46;;;;;;;44.87;27.63;;;;;;;1.71;72.16;100733.75;126673;1098;23422;-74
2020/12/01 08:46:24;;;;;;;51.28;29.60;;;;;;;1.78;72.44;100737.64;126776;1098;25396;-74
2020/12/01 08:49:06;;;;;;;55.10;32.30;;;;;;;1.82;72.15;100741.80;126814;1098;25466;-73
2020/12/01 08:51:57;;;;;;;53.75;32.00;;;;;;;1.92;72.19;100743.72;126840;1098;23380;-74
2020/12/01 08:54:34;;;;;;;50.40;32.03;;;;;;;1.93;71.91;100740.06;126793;1098;23318;-73
2020/12/01 08:57:19;;;;;;;52.40;32.45;;;;;;;2.01;71.97;100737.60;126748;1098;23379;-71
2020/12/01 09:00:12;;;;;;;44.03;30.37;;;;;;;2.08;71.80;100730.72;126837;1099;26821;-73
2020/12/01 09:02:48;;;;;;;44.38;28.62;;;;;;;2.15;71.83;100731.91;126498;1098;23425;-73
2020/12/01 09:05:37;;;;;;;46.48;28.47;;;;;;;2.21;71.43;100746.70;126473;1098;24553;-73
2020/12/01 09:08:59;;;;;;;55.92;30.23;;;;;;;2.29;71.43;100746.07;126653;1098;23322;-72
2020/12/01 09:17:10;;;;;;;51.25;28.70;;;;;;;2.45;70.78;100750.05;126700;1098;26826;-73
2020/12/01 09:22:28;;;;;;;39.37;23.93;;;;;;;2.56;69.87;100751.83;126682;1098;23320;-73
2020/12/01 09:25:26;;;;;;;41.77;24.07;;;;;;;2.66;70.62;100750.03;126782;1098;23332;-73
2020/12/01 09:27:57;;;;;;;40.00;20.37;;;;;;;2.82;70.13;100746.05;126745;1098;23327;-76
2020/12/01 09:30:36;;;;;;;43.75;23.30;;;;;;;2.94;70.26;100744.97;126750;1099;23872;-74
2020/12/01 09:33:09;;;;;;;39.90;24.50;;;;;;;3.09;70.37;100748.18;126802;1098;26692;-72
2020/12/01 09:35:37;;;;;;;;;;;;;;;3.21;69.20;100749.81;126749;1099;23388;-72
2020/12/01 09:38:07;;;;;;;37.85;22.60;;;;;;;3.30;69.52;100745.45;126725;1098;21498;-75
2020/12/01 09:40:37;;;;;;;33.80;22.55;;;;;;;3.45;69.26;100754.88;126810;1098;23460;-74
2020/12/01 09:43:14;;;;;;;30.97;19.77;;;;;;;3.47;68.52;100752.91;126694;1098;23445;-74
2020/12/01 09:46:00;;;;;;;42.30;26.33;;;;;;;3.48;68.02;100741.14;126743;1099;26811;-72
2020/12/01 09:48:34;;;;;;;37.85;21.17;;;;;;;3.56;67.96;100747.69;126621;1099;23452;-73
2020/12/01 09:51:05;;;;;;;43.60;25.92;;;;;;;3.61;67.81;100737.36;126716;1098;23414;-73
2020/12/01 10:10:10;;;;;;;34.43;20.05;;;;;;;3.93;66.77;100730.91;126121;1101;26551;-80
2020/12/01 10:12:51;;;;;;;37.37;22.73;;;;;;;4.08;66.57;100729.51;126127;1101;23331;-77
2020/12/01 10:26:07;;;;;;;37.80;23.20;;;;;;;4.33;65.01;100722.67;126153;1101;23345;-82
2020/12/01 10:34:46;;;;;;;34.77;21.30;;;;;;;4.82;64.20;100728.05;126105;1098;26959;-78
2020/12/01 10:37:15;;;;;;;38.58;24.18;;;;;;;4.87;64.54;100728.48;126478;1098;23401;-79
2020/12/01 10:39:43;;;;;;;34.43;23.30;;;;;;;5.10;64.71;100721.73;126596;1098;23431;-76
2020/12/01 10:42:14;;;;;;;34.78;24.20;;;;;;;5.49;64.12;100731.56;126631;1098;23358;-76
2020/12/01 10:44:43;;;;;;;38.78;25.82;;;;;;;5.92;63.83;100728.17;126240;1099;23467;-76
2020/12/01 10:47:12;;;;;;;41.37;28.65;;;;;;;6.54;65.12;100722.89;126711;1099;23328;-75
2020/12/01 10:49:40;;;;;;;34.93;23.77;;;;;;;7.08;64.31;100730.95;126601;1098;23474;-76
2020/12/01 10:52:09;;;;;;;31.57;22.17;;;;;;;7.49;63.40;100731.17;126596;1098;23395;-75
2020/12/01 10:54:37;;;;;;;40.95;26.00;;;;;;;7.93;64.24;100739.14;126656;1099;23466;-76
2020/12/01 10:57:06;;;;;;;34.90;24.87;;;;;;;8.55;62.26;100740.66;127214;1098;26792;-75
2020/12/01 10:59:36;;;;;;;38.25;25.00;;;;;;;8.86;61.30;100742.72;126616;1098;23430;-77
2020/12/01 11:02:04;;;;;;;43.75;24.43;;;;;;;9.30;60.01;100736.86;126680;1098;23801;-78
2020/12/01 11:04:32;;;;;;;36.25;24.10;;;;;;;8.79;56.81;100737.96;126644;1098;23376;-77
2020/12/01 11:07:00;;;;;;;41.73;29.50;;;;;;;8.07;55.98;100739.55;126804;1098;23530;-76
2020/12/01 11:09:29;;;;;;;40.80;27.57;;;;;;;7.34;55.42;100743.66;126768;1098;23336;-77
2020/12/01 11:11:59;;;;;;;35.03;23.67;;;;;;;6.75;55.48;100735.27;126783;1098;23328;-75
2020/12/01 11:14:27;;;;;;;34.85;25.25;;;;;;;6.34;56.59;100735.77;126741;1098;25031;-77
2020/12/01 11:16:55;;;;;;;38.20;25.10;;;;;;;5.93;56.96;100729.02;126775;1098;23333;-77
2020/12/01 11:19:23;;;;;;;33.30;24.03;;;;;;;5.70;56.74;100734.87;126866;1098;23331;-76
2020/12/01 11:21:51;;;;;;;40.12;27.10;;;;;;;5.53;57.30;100722.98;126856;1098;23450;-75
2020/12/01 11:24:20;;;;;;;34.73;22.52;;;;;;;5.36;57.40;100729.19;126757;1098;23588;-74
2020/12/01 11:26:48;;;;;;;48.90;28.38;;;;;;;5.07;57.73;100730.12;126568;1099;23439;-76
2020/12/01 11:29:16;;;;;;;46.13;31.23;;;;;;;4.73;57.50;100737.03;126643;1099;23383;-75
2020/12/01 11:31:45;;;;;;;41.37;26.87;;;;;;;4.43;57.73;100738.90;126827;1098;26807;-75
2020/12/01 11:34:13;;;;;;;44.75;24.75;;;;;;;4.26;58.33;100735.05;126793;1099;23395;-75
2020/12/01 11:36:42;;;;;;;51.13;27.27;;;;;;;4.17;58.77;100738.61;126773;1098;23410;-74
2020/12/01 11:39:14;;;;;;;47.60;28.42;;;;;;;4.04;59.31;100733.48;126817;1098;23379;-77
2020/12/01 11:41:43;;;;;;;35.65;25.50;;;;;;;3.85;59.13;100739.69;126926;1098;23855;-75
2020/12/01 11:44:12;;;;;;;37.05;23.92;;;;;;;3.71;59.33;100734.67;126801;1098;23331;-74
2020/12/01 11:46:42;;;;;;;37.65;21.12;;;;;;;3.62;59.87;100734.50;126809;1098;23316;-74
2020/12/01 11:49:11;;;;;;;41.50;25.87;;;;;;;3.56;60.03;100739.59;126859;1098;23890;-75
2020/12/01 11:51:41;;;;;;;39.65;24.23;;;;;;;3.53;60.55;100734.48;126768;1099;23401;-74
2020/12/01 11:54:11;;;;;;;33.70;21.57;;;;;;;3.50;60.65;100741.02;126841;1098;27483;-75
2020/12/01 11:56:39;;;;;;;40.80;25.25;;;;;;;3.52;61.20;100747.12;126737;1098;25947;-76
2020/12/01 11:59:07;;;;;;;37.45;24.30;;;;;;;3.55;61.45;100743.30;126773;1098;23533;-79
2020/12/01 12:01:36;;;;;;;41.63;24.45;;;;;;;3.57;61.23;100742.16;127090;1099;23324;-77
2020/12/01 12:04:05;;;;;;;40.48;23.02;;;;;;;3.56;61.07;100744.99;126840;1098;27133;-76
2020/12/01 12:06:37;;;;;;;41.87;25.87;;;;;;;3.46;61.04;100744.97;126792;1098;23322;-75
2020/12/01 12:09:08;;;;;;;38.00;25.77;;;;;;;3.39;61.25;100744.66;126718;1098;23395;-75
2020/12/01 12:11:37;;;;;;;36.60;24.00;;;;;;;3.38;61.66;100744.79;126840;1099;23427;-76
2020/12/01 12:14:06;;;;;;;42.40;26.23;;;;;;;3.37;61.62;100748.46;126882;1098;23325;-77
2020/12/01 12:16:34;;;;;;;41.20;26.10;;;;;;;3.39;61.91;100750.06;126845;1098;23395;-73
2020/12/01 12:19:03;;;;;;;37.75;23.83;;;;;;;3.39;61.52;100754.58;126784;1098;23353;-74
2020/12/01 12:21:32;;;;;;;38.98;24.52;;;;;;;3.39;61.78;100750.06;126693;1098;23547;-75
2020/12/01 12:24:00;;;;;;;42.85;25.75;;;;;;;3.40;61.69;100749.05;126800;1098;23533;-73
2020/12/01 12:26:28;;;;;;;37.23;24.18;;;;;;;3.43;62.01;100747.92;126882;1098;23529;-75
2020/12/01 12:28:56;;;;;;;47.17;27.82;;;;;;;3.47;61.76;100747.52;126884;1098;26782;-73
2020/12/01 12:31:25;;;;;;;38.50;27.15;;;;;;;3.46;61.63;100751.21;126855;1098;23391;-75